sensor_id;sensor_type;location;lat;lon;timestamp;P1;durP1;ratioP1;P2;durP2;ratioP2
4756;SDS011;2392;52.578;13.426;2023-09-12T00:02:05;43.37;;;18.50;;
4756;SDS011;2392;52.578;13.426;2023-09-12T00:04:33;41.63;;;18.00;;
4756;SDS011;2392;52.578;13.426;2023-09-12T00:07:00;43.67;;;18.07;;
4756;SDS011;2392;52.578;13.426;2023-09-12T00:09:30;44.90;;;18.17;;
4756;SDS011;2392;52.578;13.426;2023-09-12T00:11:57;43.47;;;16.90;;
4756;SDS011;2392;52.578;13.426;2023-09-12T00:14:24;43.03;;;18.67;;
4756;SDS011;2392;52.578;13.426;2023-09-12T00:16:52;42.23;;;18.37;;
4756;SDS011;2392;52.578;13.426;2023-09-12T00:19:20;39.13;;;18.23;;
4756;SDS011;2392;52.578;13.426;2023-09-12T00:21:49;41.23;;;17.30;;
4756;SDS011;2392;52.578;13.426;2023-09-12T00:24:17;42.27;;;18.63;;
4756;SDS011;2392;52.578;13.426;2023-09-12T00:26:44;39.50;;;18.20;;
4756;SDS011;2392;52.578;13.426;2023-09-12T00:29:11;43.40;;;18.07;;
4756;SDS011;2392;52.578;13.426;2023-09-12T00:31:38;40.23;;;18.13;;
4756;SDS011;2392;52.578;13.426;2023-09-12T00:34:05;46.60;;;19.30;;
4756;SDS011;2392;52.578;13.426;2023-09-12T00:36:32;54.73;;;18.90;;
4756;SDS011;2392;52.578;13.426;2023-09-12T00:39:03;42.83;;;16.50;;
4756;SDS011;2392;52.578;13.426;2023-09-12T00:41:30;41.77;;;17.27;;
4756;SDS011;2392;52.578;13.426;2023-09-12T00:43:57;40.57;;;19.23;;
4756;SDS011;2392;52.578;13.426;2023-09-12T00:46:24;39.30;;;19.10;;
4756;SDS011;2392;52.578;13.426;2023-09-12T00:48:52;41.63;;;17.00;;
4756;SDS011;2392;52.578;13.426;2023-09-12T00:51:21;42.10;;;18.10;;
4756;SDS011;2392;52.578;13.426;2023-09-12T00:53:50;40.10;;;18.40;;
4756;SDS011;2392;52.578;13.426;2023-09-12T00:56:20;40.00;;;17.50;;
4756;SDS011;2392;52.578;13.426;2023-09-12T00:58:47;45.03;;;17.63;;
4756;SDS011;2392;52.578;13.426;2023-09-12T01:01:17;47.43;;;18.07;;
4756;SDS011;2392;52.578;13.426;2023-09-12T01:03:45;40.97;;;16.63;;
4756;SDS011;2392;52.578;13.426;2023-09-12T01:06:14;40.00;;;16.23;;
4756;SDS011;2392;52.578;13.426;2023-09-12T01:08:48;39.37;;;17.37;;
4756;SDS011;2392;52.578;13.426;2023-09-12T01:11:15;39.50;;;16.20;;
4756;SDS011;2392;52.578;13.426;2023-09-12T01:13:45;39.40;;;16.57;;
4756;SDS011;2392;52.578;13.426;2023-09-12T01:16:12;36.07;;;17.00;;
4756;SDS011;2392;52.578;13.426;2023-09-12T01:18:39;41.70;;;17.23;;
4756;SDS011;2392;52.578;13.426;2023-09-12T01:21:13;42.33;;;17.27;;
4756;SDS011;2392;52.578;13.426;2023-09-12T01:24:13;41.00;;;17.60;;
4756;SDS011;2392;52.578;13.426;2023-09-12T01:26:59;37.73;;;17.37;;
4756;SDS011;2392;52.578;13.426;2023-09-12T01:29:40;42.37;;;17.63;;
4756;SDS011;2392;52.578;13.426;2023-09-12T01:32:10;43.00;;;17.57;;
4756;SDS011;2392;52.578;13.426;2023-09-12T01:34:37;42.40;;;19.70;;
4756;SDS011;2392;52.578;13.426;2023-09-12T01:37:04;40.57;;;17.43;;
4756;SDS011;2392;52.578;13.426;2023-09-12T01:39:31;40.13;;;18.67;;
4756;SDS011;2392;52.578;13.426;2023-09-12T01:41:59;38.40;;;18.07;;
4756;SDS011;2392;52.578;13.426;2023-09-12T01:44:28;45.73;;;17.63;;
4756;SDS011;2392;52.578;13.426;2023-09-12T01:46:57;43.33;;;18.20;;
4756;SDS011;2392;52.578;13.426;2023-09-12T01:49:29;39.90;;;19.50;;
4756;SDS011;2392;52.578;13.426;2023-09-12T01:51:58;38.83;;;18.23;;
4756;SDS011;2392;52.578;13.426;2023-09-12T01:54:26;40.33;;;18.07;;
4756;SDS011;2392;52.578;13.426;2023-09-12T01:56:53;40.07;;;18.10;;
4756;SDS011;2392;52.578;13.426;2023-09-12T01:59:23;39.43;;;17.90;;
4756;SDS011;2392;52.578;13.426;2023-09-12T02:01:51;41.00;;;18.83;;
4756;SDS011;2392;52.578;13.426;2023-09-12T02:04:18;44.17;;;19.70;;
4756;SDS011;2392;52.578;13.426;2023-09-12T02:06:45;49.27;;;20.03;;
4756;SDS011;2392;52.578;13.426;2023-09-12T02:09:12;46.63;;;19.93;;
4756;SDS011;2392;52.578;13.426;2023-09-12T02:11:41;42.80;;;20.00;;
4756;SDS011;2392;52.578;13.426;2023-09-12T02:14:08;43.80;;;19.33;;
4756;SDS011;2392;52.578;13.426;2023-09-12T02:16:45;39.43;;;18.60;;
4756;SDS011;2392;52.578;13.426;2023-09-12T02:19:13;43.70;;;21.37;;
4756;SDS011;2392;52.578;13.426;2023-09-12T02:21:40;39.50;;;19.60;;
4756;SDS011;2392;52.578;13.426;2023-09-12T02:24:07;41.63;;;20.30;;
4756;SDS011;2392;52.578;13.426;2023-09-12T02:26:34;44.27;;;20.03;;
4756;SDS011;2392;52.578;13.426;2023-09-12T02:29:02;42.07;;;20.63;;
4756;SDS011;2392;52.578;13.426;2023-09-12T02:31:31;40.50;;;19.00;;
4756;SDS011;2392;52.578;13.426;2023-09-12T02:33:58;42.87;;;18.70;;
4756;SDS011;2392;52.578;13.426;2023-09-12T02:36:26;38.23;;;17.63;;
4756;SDS011;2392;52.578;13.426;2023-09-12T02:38:54;46.20;;;20.00;;
4756;SDS011;2392;52.578;13.426;2023-09-12T02:41:21;43.57;;;19.80;;
4756;SDS011;2392;52.578;13.426;2023-09-12T02:43:48;40.53;;;19.90;;
4756;SDS011;2392;52.578;13.426;2023-09-12T02:46:19;39.03;;;19.20;;
4756;SDS011;2392;52.578;13.426;2023-09-12T02:48:46;42.63;;;19.63;;
4756;SDS011;2392;52.578;13.426;2023-09-12T02:51:13;40.80;;;19.10;;
4756;SDS011;2392;52.578;13.426;2023-09-12T02:53:41;41.80;;;20.23;;
4756;SDS011;2392;52.578;13.426;2023-09-12T02:56:08;43.13;;;20.07;;
4756;SDS011;2392;52.578;13.426;2023-09-12T02:58:35;43.10;;;19.10;;
4756;SDS011;2392;52.578;13.426;2023-09-12T03:01:02;43.23;;;18.77;;
4756;SDS011;2392;52.578;13.426;2023-09-12T03:03:31;41.30;;;20.70;;
4756;SDS011;2392;52.578;13.426;2023-09-12T03:05:59;43.23;;;20.60;;
4756;SDS011;2392;52.578;13.426;2023-09-12T03:08:28;41.20;;;20.13;;
4756;SDS011;2392;52.578;13.426;2023-09-12T03:10:57;43.60;;;20.50;;
4756;SDS011;2392;52.578;13.426;2023-09-12T03:13:26;49.73;;;20.37;;
4756;SDS011;2392;52.578;13.426;2023-09-12T03:15:54;47.53;;;20.53;;
4756;SDS011;2392;52.578;13.426;2023-09-12T03:18:21;40.93;;;20.13;;
4756;SDS011;2392;52.578;13.426;2023-09-12T03:20:51;45.70;;;20.33;;
4756;SDS011;2392;52.578;13.426;2023-09-12T03:23:30;45.30;;;21.00;;
4756;SDS011;2392;52.578;13.426;2023-09-12T03:26:01;47.77;;;20.20;;
4756;SDS011;2392;52.578;13.426;2023-09-12T03:28:29;40.90;;;19.13;;
4756;SDS011;2392;52.578;13.426;2023-09-12T03:31:02;43.33;;;19.50;;
4756;SDS011;2392;52.578;13.426;2023-09-12T03:33:30;44.53;;;20.40;;
4756;SDS011;2392;52.578;13.426;2023-09-12T03:35:57;42.30;;;19.57;;
4756;SDS011;2392;52.578;13.426;2023-09-12T03:38:24;46.50;;;19.90;;
4756;SDS011;2392;52.578;13.426;2023-09-12T03:40:51;40.63;;;19.90;;
4756;SDS011;2392;52.578;13.426;2023-09-12T03:43:20;39.13;;;18.20;;
4756;SDS011;2392;52.578;13.426;2023-09-12T03:45:48;41.13;;;19.97;;
4756;SDS011;2392;52.578;13.426;2023-09-12T03:48:15;42.50;;;20.37;;
4756;SDS011;2392;52.578;13.426;2023-09-12T03:50:42;40.30;;;19.90;;
4756;SDS011;2392;52.578;13.426;2023-09-12T03:53:09;46.90;;;21.20;;
4756;SDS011;2392;52.578;13.426;2023-09-12T03:55:36;50.60;;;21.57;;
4756;SDS011;2392;52.578;13.426;2023-09-12T03:58:03;51.67;;;22.30;;
4756;SDS011;2392;52.578;13.426;2023-09-12T04:00:31;52.37;;;22.93;;
4756;SDS011;2392;52.578;13.426;2023-09-12T04:02:58;48.70;;;20.63;;
4756;SDS011;2392;52.578;13.426;2023-09-12T04:05:26;45.30;;;20.40;;
4756;SDS011;2392;52.578;13.426;2023-09-12T04:07:53;53.90;;;19.80;;
4756;SDS011;2392;52.578;13.426;2023-09-12T04:10:20;42.57;;;20.60;;
4756;SDS011;2392;52.578;13.426;2023-09-12T04:12:47;49.27;;;20.30;;
4756;SDS011;2392;52.578;13.426;2023-09-12T04:15:14;53.73;;;20.17;;
4756;SDS011;2392;52.578;13.426;2023-09-12T04:17:43;43.10;;;19.40;;
4756;SDS011;2392;52.578;13.426;2023-09-12T04:20:10;46.90;;;19.37;;
4756;SDS011;2392;52.578;13.426;2023-09-12T04:22:39;46.40;;;20.23;;
4756;SDS011;2392;52.578;13.426;2023-09-12T04:25:08;49.40;;;21.23;;
4756;SDS011;2392;52.578;13.426;2023-09-12T04:27:35;48.00;;;21.50;;
4756;SDS011;2392;52.578;13.426;2023-09-12T04:30:03;45.00;;;22.40;;
4756;SDS011;2392;52.578;13.426;2023-09-12T04:32:34;52.00;;;22.10;;
4756;SDS011;2392;52.578;13.426;2023-09-12T04:35:02;52.67;;;22.97;;
4756;SDS011;2392;52.578;13.426;2023-09-12T04:37:30;46.33;;;22.57;;
4756;SDS011;2392;52.578;13.426;2023-09-12T04:39:57;50.90;;;22.63;;
4756;SDS011;2392;52.578;13.426;2023-09-12T04:42:24;48.53;;;21.77;;
4756;SDS011;2392;52.578;13.426;2023-09-12T04:44:51;46.80;;;20.67;;
4756;SDS011;2392;52.578;13.426;2023-09-12T04:47:18;45.77;;;20.73;;
4756;SDS011;2392;52.578;13.426;2023-09-12T04:49:46;46.87;;;20.80;;
4756;SDS011;2392;52.578;13.426;2023-09-12T04:52:14;46.13;;;21.57;;
4756;SDS011;2392;52.578;13.426;2023-09-12T04:54:41;46.37;;;22.10;;
4756;SDS011;2392;52.578;13.426;2023-09-12T04:57:09;43.17;;;21.07;;
4756;SDS011;2392;52.578;13.426;2023-09-12T04:59:37;43.03;;;21.53;;
4756;SDS011;2392;52.578;13.426;2023-09-12T05:02:06;46.67;;;22.10;;
4756;SDS011;2392;52.578;13.426;2023-09-12T05:04:34;44.10;;;20.77;;
4756;SDS011;2392;52.578;13.426;2023-09-12T05:07:01;49.30;;;22.20;;
4756;SDS011;2392;52.578;13.426;2023-09-12T05:09:29;46.27;;;21.90;;
4756;SDS011;2392;52.578;13.426;2023-09-12T05:11:56;47.07;;;20.60;;
4756;SDS011;2392;52.578;13.426;2023-09-12T05:14:23;46.00;;;22.30;;
4756;SDS011;2392;52.578;13.426;2023-09-12T05:16:51;51.60;;;22.80;;
4756;SDS011;2392;52.578;13.426;2023-09-12T05:19:25;48.00;;;21.10;;
4756;SDS011;2392;52.578;13.426;2023-09-12T05:21:52;46.63;;;22.53;;
4756;SDS011;2392;52.578;13.426;2023-09-12T05:24:19;48.00;;;21.97;;
4756;SDS011;2392;52.578;13.426;2023-09-12T05:26:48;44.73;;;21.60;;
4756;SDS011;2392;52.578;13.426;2023-09-12T05:29:15;45.87;;;20.97;;
4756;SDS011;2392;52.578;13.426;2023-09-12T05:31:42;51.73;;;20.73;;
4756;SDS011;2392;52.578;13.426;2023-09-12T05:34:09;43.73;;;21.73;;
4756;SDS011;2392;52.578;13.426;2023-09-12T05:36:36;48.23;;;22.43;;
4756;SDS011;2392;52.578;13.426;2023-09-12T05:39:03;48.23;;;23.40;;
4756;SDS011;2392;52.578;13.426;2023-09-12T05:41:31;45.63;;;22.57;;
4756;SDS011;2392;52.578;13.426;2023-09-12T05:43:59;52.10;;;22.40;;
4756;SDS011;2392;52.578;13.426;2023-09-12T05:46:26;51.40;;;23.80;;
4756;SDS011;2392;52.578;13.426;2023-09-12T05:48:53;45.93;;;22.97;;
4756;SDS011;2392;52.578;13.426;2023-09-12T05:51:20;44.17;;;21.70;;
4756;SDS011;2392;52.578;13.426;2023-09-12T05:53:47;50.40;;;23.00;;
4756;SDS011;2392;52.578;13.426;2023-09-12T05:56:15;42.13;;;21.30;;
4756;SDS011;2392;52.578;13.426;2023-09-12T05:58:42;49.97;;;23.03;;
4756;SDS011;2392;52.578;13.426;2023-09-12T06:01:10;50.57;;;21.60;;
4756;SDS011;2392;52.578;13.426;2023-09-12T06:03:38;54.23;;;23.67;;
4756;SDS011;2392;52.578;13.426;2023-09-12T06:06:05;55.70;;;22.50;;
4756;SDS011;2392;52.578;13.426;2023-09-12T06:08:32;52.60;;;20.90;;
4756;SDS011;2392;52.578;13.426;2023-09-12T06:10:59;51.10;;;23.53;;
4756;SDS011;2392;52.578;13.426;2023-09-12T06:13:26;48.27;;;23.70;;
4756;SDS011;2392;52.578;13.426;2023-09-12T06:15:53;51.00;;;23.13;;
4756;SDS011;2392;52.578;13.426;2023-09-12T06:18:21;44.10;;;21.50;;
4756;SDS011;2392;52.578;13.426;2023-09-12T06:20:49;44.70;;;21.67;;
4756;SDS011;2392;52.578;13.426;2023-09-12T06:23:16;46.30;;;21.60;;
4756;SDS011;2392;52.578;13.426;2023-09-12T06:25:43;48.17;;;22.00;;
4756;SDS011;2392;52.578;13.426;2023-09-12T06:28:10;51.90;;;22.40;;
4756;SDS011;2392;52.578;13.426;2023-09-12T06:30:37;67.07;;;21.60;;
4756;SDS011;2392;52.578;13.426;2023-09-12T06:33:04;44.63;;;20.87;;
4756;SDS011;2392;52.578;13.426;2023-09-12T06:35:32;54.50;;;22.37;;
4756;SDS011;2392;52.578;13.426;2023-09-12T06:37:59;47.17;;;21.90;;
4756;SDS011;2392;52.578;13.426;2023-09-12T06:40:27;52.40;;;21.63;;
4756;SDS011;2392;52.578;13.426;2023-09-12T06:42:54;41.77;;;20.27;;
4756;SDS011;2392;52.578;13.426;2023-09-12T06:45:20;47.13;;;21.73;;
4756;SDS011;2392;52.578;13.426;2023-09-12T06:47:47;49.43;;;25.53;;
4756;SDS011;2392;52.578;13.426;2023-09-12T06:50:14;45.33;;;22.40;;
4756;SDS011;2392;52.578;13.426;2023-09-12T06:52:45;52.60;;;21.03;;
4756;SDS011;2392;52.578;13.426;2023-09-12T06:55:12;43.50;;;19.20;;
4756;SDS011;2392;52.578;13.426;2023-09-12T06:57:40;47.53;;;20.40;;
4756;SDS011;2392;52.578;13.426;2023-09-12T07:00:07;47.80;;;19.50;;
4756;SDS011;2392;52.578;13.426;2023-09-12T07:02:35;48.40;;;21.70;;
4756;SDS011;2392;52.578;13.426;2023-09-12T07:05:03;42.77;;;19.50;;
4756;SDS011;2392;52.578;13.426;2023-09-12T07:07:30;42.50;;;18.33;;
4756;SDS011;2392;52.578;13.426;2023-09-12T07:10:00;48.83;;;18.60;;
4756;SDS011;2392;52.578;13.426;2023-09-12T07:12:28;39.20;;;16.87;;
4756;SDS011;2392;52.578;13.426;2023-09-12T07:14:57;38.90;;;17.27;;
4756;SDS011;2392;52.578;13.426;2023-09-12T07:17:27;40.27;;;18.40;;
4756;SDS011;2392;52.578;13.426;2023-09-12T07:19:54;40.00;;;16.20;;
4756;SDS011;2392;52.578;13.426;2023-09-12T07:22:21;41.33;;;14.93;;
4756;SDS011;2392;52.578;13.426;2023-09-12T07:24:48;39.67;;;14.70;;
4756;SDS011;2392;52.578;13.426;2023-09-12T07:27:16;34.13;;;14.20;;
4756;SDS011;2392;52.578;13.426;2023-09-12T07:29:43;36.67;;;14.37;;
4756;SDS011;2392;52.578;13.426;2023-09-12T07:32:10;36.77;;;13.87;;
4756;SDS011;2392;52.578;13.426;2023-09-12T07:34:38;35.60;;;12.40;;
4756;SDS011;2392;52.578;13.426;2023-09-12T07:37:06;35.20;;;13.10;;
4756;SDS011;2392;52.578;13.426;2023-09-12T07:39:33;38.90;;;14.20;;
4756;SDS011;2392;52.578;13.426;2023-09-12T07:42:00;38.40;;;13.10;;
4756;SDS011;2392;52.578;13.426;2023-09-12T07:44:29;43.23;;;16.37;;
4756;SDS011;2392;52.578;13.426;2023-09-12T07:46:56;34.90;;;14.50;;
4756;SDS011;2392;52.578;13.426;2023-09-12T07:49:23;37.07;;;13.70;;
4756;SDS011;2392;52.578;13.426;2023-09-12T07:51:51;35.03;;;13.40;;
4756;SDS011;2392;52.578;13.426;2023-09-12T07:54:19;34.90;;;12.40;;
4756;SDS011;2392;52.578;13.426;2023-09-12T07:56:46;40.30;;;13.10;;
4756;SDS011;2392;52.578;13.426;2023-09-12T07:59:13;43.57;;;13.57;;
4756;SDS011;2392;52.578;13.426;2023-09-12T08:01:41;44.20;;;13.10;;
4756;SDS011;2392;52.578;13.426;2023-09-12T08:04:08;41.10;;;13.53;;
4756;SDS011;2392;52.578;13.426;2023-09-12T08:06:35;35.57;;;12.43;;
4756;SDS011;2392;52.578;13.426;2023-09-12T08:09:02;37.33;;;12.03;;
4756;SDS011;2392;52.578;13.426;2023-09-12T08:11:30;43.37;;;13.57;;
4756;SDS011;2392;52.578;13.426;2023-09-12T08:13:57;41.60;;;13.13;;
4756;SDS011;2392;52.578;13.426;2023-09-12T08:16:24;36.57;;;12.07;;
4756;SDS011;2392;52.578;13.426;2023-09-12T08:18:52;39.50;;;12.40;;
4756;SDS011;2392;52.578;13.426;2023-09-12T08:21:19;35.93;;;13.20;;
4756;SDS011;2392;52.578;13.426;2023-09-12T08:23:46;45.90;;;12.70;;
4756;SDS011;2392;52.578;13.426;2023-09-12T08:26:13;35.63;;;12.37;;
4756;SDS011;2392;52.578;13.426;2023-09-12T08:28:40;33.20;;;12.23;;
4756;SDS011;2392;52.578;13.426;2023-09-12T08:31:07;41.90;;;12.53;;
4756;SDS011;2392;52.578;13.426;2023-09-12T08:33:34;39.83;;;13.57;;
4756;SDS011;2392;52.578;13.426;2023-09-12T08:36:03;41.30;;;12.90;;
4756;SDS011;2392;52.578;13.426;2023-09-12T08:38:30;39.17;;;13.27;;
4756;SDS011;2392;52.578;13.426;2023-09-12T08:40:57;34.73;;;12.70;;
4756;SDS011;2392;52.578;13.426;2023-09-12T08:43:24;34.53;;;12.43;;
4756;SDS011;2392;52.578;13.426;2023-09-12T08:45:52;38.27;;;13.07;;
4756;SDS011;2392;52.578;13.426;2023-09-12T08:48:20;39.47;;;12.50;;
4756;SDS011;2392;52.578;13.426;2023-09-12T08:50:49;34.33;;;11.87;;
4756;SDS011;2392;52.578;13.426;2023-09-12T08:53:19;32.73;;;11.87;;
4756;SDS011;2392;52.578;13.426;2023-09-12T08:55:47;46.60;;;11.70;;
4756;SDS011;2392;52.578;13.426;2023-09-12T08:58:17;35.17;;;12.40;;
4756;SDS011;2392;52.578;13.426;2023-09-12T09:00:51;35.43;;;12.07;;
4756;SDS011;2392;52.578;13.426;2023-09-12T09:03:18;34.90;;;10.93;;
4756;SDS011;2392;52.578;13.426;2023-09-12T09:05:46;38.90;;;12.50;;
4756;SDS011;2392;52.578;13.426;2023-09-12T09:08:19;44.90;;;12.20;;
4756;SDS011;2392;52.578;13.426;2023-09-12T09:10:57;31.57;;;10.50;;
4756;SDS011;2392;52.578;13.426;2023-09-12T09:13:27;36.47;;;11.77;;
4756;SDS011;2392;52.578;13.426;2023-09-12T09:16:11;35.60;;;11.20;;
4756;SDS011;2392;52.578;13.426;2023-09-12T09:18:52;31.30;;;11.40;;
4756;SDS011;2392;52.578;13.426;2023-09-12T09:21:21;35.17;;;11.23;;
4756;SDS011;2392;52.578;13.426;2023-09-12T09:23:55;35.17;;;10.13;;
4756;SDS011;2392;52.578;13.426;2023-09-12T09:26:22;39.10;;;12.40;;
4756;SDS011;2392;52.578;13.426;2023-09-12T09:29:02;29.97;;;10.50;;
4756;SDS011;2392;52.578;13.426;2023-09-12T09:31:31;39.03;;;11.20;;
4756;SDS011;2392;52.578;13.426;2023-09-12T09:33:59;32.97;;;11.50;;
4756;SDS011;2392;52.578;13.426;2023-09-12T09:36:27;36.67;;;12.00;;
4756;SDS011;2392;52.578;13.426;2023-09-12T09:38:57;36.40;;;12.47;;
4756;SDS011;2392;52.578;13.426;2023-09-12T09:41:26;37.93;;;12.10;;
4756;SDS011;2392;52.578;13.426;2023-09-12T09:43:53;36.93;;;12.77;;
4756;SDS011;2392;52.578;13.426;2023-09-12T09:46:21;38.90;;;13.70;;
4756;SDS011;2392;52.578;13.426;2023-09-12T09:48:48;39.73;;;12.37;;
4756;SDS011;2392;52.578;13.426;2023-09-12T09:51:16;43.30;;;12.20;;
4756;SDS011;2392;52.578;13.426;2023-09-12T09:53:44;35.93;;;12.80;;
4756;SDS011;2392;52.578;13.426;2023-09-12T09:56:14;38.20;;;12.60;;
4756;SDS011;2392;52.578;13.426;2023-09-12T09:58:46;34.83;;;12.30;;
4756;SDS011;2392;52.578;13.426;2023-09-12T10:01:16;36.10;;;13.83;;
4756;SDS011;2392;52.578;13.426;2023-09-12T10:03:45;40.40;;;12.40;;
4756;SDS011;2392;52.578;13.426;2023-09-12T10:06:15;43.10;;;13.70;;
4756;SDS011;2392;52.578;13.426;2023-09-12T10:08:43;39.50;;;12.10;;
4756;SDS011;2392;52.578;13.426;2023-09-12T10:11:14;36.67;;;12.10;;
4756;SDS011;2392;52.578;13.426;2023-09-12T10:13:43;36.90;;;12.90;;
4756;SDS011;2392;52.578;13.426;2023-09-12T10:16:18;36.87;;;11.70;;
4756;SDS011;2392;52.578;13.426;2023-09-12T10:18:54;34.30;;;11.10;;
4756;SDS011;2392;52.578;13.426;2023-09-12T10:21:28;33.63;;;11.27;;
4756;SDS011;2392;52.578;13.426;2023-09-12T10:23:59;36.30;;;11.77;;
4756;SDS011;2392;52.578;13.426;2023-09-12T10:26:29;34.07;;;10.40;;
4756;SDS011;2392;52.578;13.426;2023-09-12T10:28:58;33.57;;;11.33;;
4756;SDS011;2392;52.578;13.426;2023-09-12T10:31:28;36.87;;;11.20;;
4756;SDS011;2392;52.578;13.426;2023-09-12T10:33:56;29.00;;;10.00;;
4756;SDS011;2392;52.578;13.426;2023-09-12T10:36:25;27.67;;;9.67;;
4756;SDS011;2392;52.578;13.426;2023-09-12T10:38:53;24.67;;;9.10;;
4756;SDS011;2392;52.578;13.426;2023-09-12T10:41:24;26.60;;;9.87;;
4756;SDS011;2392;52.578;13.426;2023-09-12T10:43:53;27.47;;;9.33;;
4756;SDS011;2392;52.578;13.426;2023-09-12T10:46:21;24.10;;;9.37;;
4756;SDS011;2392;52.578;13.426;2023-09-12T10:48:49;27.27;;;9.60;;
4756;SDS011;2392;52.578;13.426;2023-09-12T10:51:18;22.90;;;8.53;;
4756;SDS011;2392;52.578;13.426;2023-09-12T10:53:46;29.13;;;9.20;;
4756;SDS011;2392;52.578;13.426;2023-09-12T10:56:16;23.70;;;9.10;;
4756;SDS011;2392;52.578;13.426;2023-09-12T11:01:43;24.13;;;8.73;;
4756;SDS011;2392;52.578;13.426;2023-09-12T11:04:31;23.53;;;8.83;;
4756;SDS011;2392;52.578;13.426;2023-09-12T11:07:00;24.87;;;8.50;;
4756;SDS011;2392;52.578;13.426;2023-09-12T11:09:28;20.53;;;8.10;;
4756;SDS011;2392;52.578;13.426;2023-09-12T11:11:57;21.00;;;8.07;;
4756;SDS011;2392;52.578;13.426;2023-09-12T11:14:27;27.13;;;8.90;;
4756;SDS011;2392;52.578;13.426;2023-09-12T11:19:48;20.70;;;7.63;;
4756;SDS011;2392;52.578;13.426;2023-09-12T11:22:22;22.80;;;8.07;;
4756;SDS011;2392;52.578;13.426;2023-09-12T11:24:51;18.07;;;7.20;;
4756;SDS011;2392;52.578;13.426;2023-09-12T11:27:20;24.17;;;7.37;;
4756;SDS011;2392;52.578;13.426;2023-09-12T11:29:51;21.83;;;7.67;;
4756;SDS011;2392;52.578;13.426;2023-09-12T11:32:26;20.20;;;7.47;;
4756;SDS011;2392;52.578;13.426;2023-09-12T11:34:57;18.83;;;7.50;;
4756;SDS011;2392;52.578;13.426;2023-09-12T11:37:31;19.63;;;7.20;;
4756;SDS011;2392;52.578;13.426;2023-09-12T11:40:00;17.60;;;7.00;;
4756;SDS011;2392;52.578;13.426;2023-09-12T11:42:28;23.40;;;7.43;;
4756;SDS011;2392;52.578;13.426;2023-09-12T11:44:57;22.43;;;7.67;;
4756;SDS011;2392;52.578;13.426;2023-09-12T11:47:25;18.93;;;7.40;;
4756;SDS011;2392;52.578;13.426;2023-09-12T11:49:53;22.40;;;7.97;;
4756;SDS011;2392;52.578;13.426;2023-09-12T11:52:21;21.30;;;8.37;;
4756;SDS011;2392;52.578;13.426;2023-09-12T11:54:48;23.70;;;7.83;;
4756;SDS011;2392;52.578;13.426;2023-09-12T11:57:15;24.50;;;8.47;;
4756;SDS011;2392;52.578;13.426;2023-09-12T11:59:43;23.80;;;7.90;;
4756;SDS011;2392;52.578;13.426;2023-09-12T12:02:15;26.70;;;8.37;;
4756;SDS011;2392;52.578;13.426;2023-09-12T12:04:42;30.40;;;9.20;;
4756;SDS011;2392;52.578;13.426;2023-09-12T12:07:10;28.60;;;9.10;;
4756;SDS011;2392;52.578;13.426;2023-09-12T12:09:38;30.77;;;9.40;;
4756;SDS011;2392;52.578;13.426;2023-09-12T12:12:12;38.80;;;9.40;;
4756;SDS011;2392;52.578;13.426;2023-09-12T12:14:40;31.07;;;9.60;;
4756;SDS011;2392;52.578;13.426;2023-09-12T12:17:10;27.50;;;9.30;;
4756;SDS011;2392;52.578;13.426;2023-09-12T12:19:40;29.97;;;9.73;;
4756;SDS011;2392;52.578;13.426;2023-09-12T12:22:12;28.10;;;9.77;;
4756;SDS011;2392;52.578;13.426;2023-09-12T12:24:40;26.27;;;9.40;;
4756;SDS011;2392;52.578;13.426;2023-09-12T12:27:08;29.17;;;10.63;;
4756;SDS011;2392;52.578;13.426;2023-09-12T12:29:39;31.87;;;9.50;;
4756;SDS011;2392;52.578;13.426;2023-09-12T12:32:11;29.00;;;9.57;;
4756;SDS011;2392;52.578;13.426;2023-09-12T12:34:43;26.50;;;9.50;;
4756;SDS011;2392;52.578;13.426;2023-09-12T12:37:15;29.43;;;9.20;;
4756;SDS011;2392;52.578;13.426;2023-09-12T12:39:43;28.00;;;9.10;;
4756;SDS011;2392;52.578;13.426;2023-09-12T12:42:11;24.50;;;9.07;;
4756;SDS011;2392;52.578;13.426;2023-09-12T12:44:38;27.57;;;9.10;;
4756;SDS011;2392;52.578;13.426;2023-09-12T12:47:06;29.50;;;9.33;;
4756;SDS011;2392;52.578;13.426;2023-09-12T12:49:36;28.17;;;9.57;;
4756;SDS011;2392;52.578;13.426;2023-09-12T12:52:10;28.93;;;8.83;;
4756;SDS011;2392;52.578;13.426;2023-09-12T12:54:37;31.57;;;9.50;;
4756;SDS011;2392;52.578;13.426;2023-09-12T12:57:04;29.87;;;8.87;;
4756;SDS011;2392;52.578;13.426;2023-09-12T12:59:32;29.83;;;9.07;;
4756;SDS011;2392;52.578;13.426;2023-09-12T13:02:03;27.27;;;8.83;;
4756;SDS011;2392;52.578;13.426;2023-09-12T13:04:35;32.63;;;9.70;;
4756;SDS011;2392;52.578;13.426;2023-09-12T13:07:07;26.77;;;8.60;;
4756;SDS011;2392;52.578;13.426;2023-09-12T13:09:38;29.70;;;9.83;;
4756;SDS011;2392;52.578;13.426;2023-09-12T13:12:05;28.80;;;9.80;;
4756;SDS011;2392;52.578;13.426;2023-09-12T13:14:34;33.07;;;9.20;;
4756;SDS011;2392;52.578;13.426;2023-09-12T13:17:04;28.13;;;8.73;;
4756;SDS011;2392;52.578;13.426;2023-09-12T13:19:32;29.97;;;9.37;;
4756;SDS011;2392;52.578;13.426;2023-09-12T13:22:00;27.77;;;8.87;;
4756;SDS011;2392;52.578;13.426;2023-09-12T13:24:29;28.47;;;8.60;;
4756;SDS011;2392;52.578;13.426;2023-09-12T13:26:57;30.47;;;8.93;;
4756;SDS011;2392;52.578;13.426;2023-09-12T13:29:25;34.53;;;10.33;;
4756;SDS011;2392;52.578;13.426;2023-09-12T13:31:52;32.13;;;9.93;;
4756;SDS011;2392;52.578;13.426;2023-09-12T13:34:19;24.70;;;8.33;;
4756;SDS011;2392;52.578;13.426;2023-09-12T13:36:46;30.37;;;9.23;;
4756;SDS011;2392;52.578;13.426;2023-09-12T13:39:13;39.20;;;9.00;;
4756;SDS011;2392;52.578;13.426;2023-09-12T13:41:44;28.73;;;9.47;;
4756;SDS011;2392;52.578;13.426;2023-09-12T13:44:11;36.30;;;9.77;;
4756;SDS011;2392;52.578;13.426;2023-09-12T13:46:39;26.03;;;8.57;;
4756;SDS011;2392;52.578;13.426;2023-09-12T13:49:09;33.83;;;9.43;;
4756;SDS011;2392;52.578;13.426;2023-09-12T13:51:37;31.60;;;8.83;;
4756;SDS011;2392;52.578;13.426;2023-09-12T13:54:05;30.70;;;9.60;;
4756;SDS011;2392;52.578;13.426;2023-09-12T13:56:39;33.20;;;10.87;;
4756;SDS011;2392;52.578;13.426;2023-09-12T13:59:08;29.03;;;10.43;;
4756;SDS011;2392;52.578;13.426;2023-09-12T14:01:36;28.63;;;10.00;;
4756;SDS011;2392;52.578;13.426;2023-09-12T14:04:04;28.80;;;8.30;;
4756;SDS011;2392;52.578;13.426;2023-09-12T14:06:32;30.97;;;9.20;;
4756;SDS011;2392;52.578;13.426;2023-09-12T14:09:01;34.93;;;9.33;;
4756;SDS011;2392;52.578;13.426;2023-09-12T14:11:28;24.83;;;8.50;;
4756;SDS011;2392;52.578;13.426;2023-09-12T14:13:55;32.30;;;9.97;;
4756;SDS011;2392;52.578;13.426;2023-09-12T14:16:23;35.93;;;8.87;;
4756;SDS011;2392;52.578;13.426;2023-09-12T14:18:51;27.93;;;9.60;;
4756;SDS011;2392;52.578;13.426;2023-09-12T14:21:18;30.47;;;10.10;;
4756;SDS011;2392;52.578;13.426;2023-09-12T14:23:46;31.70;;;9.80;;
4756;SDS011;2392;52.578;13.426;2023-09-12T14:26:18;33.93;;;9.40;;
4756;SDS011;2392;52.578;13.426;2023-09-12T14:28:45;29.33;;;9.00;;
4756;SDS011;2392;52.578;13.426;2023-09-12T14:31:12;25.93;;;9.03;;
4756;SDS011;2392;52.578;13.426;2023-09-12T14:33:42;26.30;;;9.20;;
4756;SDS011;2392;52.578;13.426;2023-09-12T14:36:10;29.27;;;9.63;;
4756;SDS011;2392;52.578;13.426;2023-09-12T14:38:38;29.50;;;9.03;;
4756;SDS011;2392;52.578;13.426;2023-09-12T14:41:05;32.67;;;9.43;;
4756;SDS011;2392;52.578;13.426;2023-09-12T14:43:32;34.23;;;7.80;;
4756;SDS011;2392;52.578;13.426;2023-09-12T14:46:00;37.87;;;8.20;;
4756;SDS011;2392;52.578;13.426;2023-09-12T14:48:29;23.40;;;7.07;;
4756;SDS011;2392;52.578;13.426;2023-09-12T14:51:00;24.90;;;7.40;;
4756;SDS011;2392;52.578;13.426;2023-09-12T14:53:28;24.97;;;7.00;;